Time;durP1;ratioP1;P1;durP2;ratioP2;P2;SDS_P1;SDS_P2;PMS_P1;PMS_P2;Temp;Humidity;BMP_temperature;BMP_pressure;BME280_temperature;BME280_humidity;BME280_pressure;Samples;Min_cycle;Max_cycle;Signal;HPM_P1;HPM_P2
2024/04/23 05:51:32;;;;;;;4.37;3.50;;;;;;;;;;13511282;21;1617657;-84
2024/04/23 05:56:46;;;;;;;5.85;3.90;;;;;;;;;;13541664;22;20064;-84
2024/04/23 06:01:55;;;;;;;3.78;2.97;;;;;;;;;;13497611;22;20004;-84
2024/04/23 06:24:09;;;;;;;4.78;3.38;;;;;;;;;;13539293;22;19989;-84
2024/04/23 06:29:11;;;;;;;5.75;4.00;;;;;;;;;;13538871;22;19988;-84
2024/04/23 06:34:37;;;;;;;4.32;2.90;;;;;;;;;;13521845;21;19988;-84
2024/04/23 06:39:58;;;;;;;6.43;5.43;;;;;;;;;;13535753;22;20459;-84
2024/04/23 06:44:59;;;;;;;8.63;6.32;;;;;;;;;;13490037;22;20088;-85
2024/04/23 06:50:08;;;;;;;6.15;4.53;;;;;;;;;;13527185;22;20001;-84
2024/04/23 07:06:49;;;;;;;4.72;2.78;;;;;;;;;;13519094;22;19989;-84
2024/04/23 07:11:50;;;;;;;5.38;3.63;;;;;;;;;;13468763;22;20007;-85
2024/04/23 08:31:45;;;;;;;4.55;2.92;;;;;;;;;;13742266;21;20423;-85
2024/04/23 08:43:30;;;;;;;3.33;2.58;;;;;;;;;;13740925;21;19988;-84
2024/04/23 09:12:02;;;;;;;5.72;4.05;;;;;;;;;;13738343;21;19992;-84
2024/04/23 09:35:08;;;;;;;3.25;2.90;;;;;;;;;;13742635;21;19991;-85
2024/04/23 12:22:23;;;;;;;4.28;3.85;;;;;;;;;;13743760;21;19991;-84
2024/04/23 12:33:39;;;;;;;3.35;2.42;;;;;;;;;;13305920;22;19991;-85
2024/04/23 12:39:19;;;;;;;3.33;3.03;;;;;;;;;;13268347;22;20023;-85
2024/04/23 13:19:14;;;;;;;4.40;3.25;;;;;;;;;;13750259;21;20095;-82
2024/04/23 13:24:15;;;;;;;3.25;2.63;;;;;;;;;;13753349;21;20003;-83
2024/04/23 13:29:16;;;;;;;2.92;1.98;;;;;;;;;;13748600;21;20028;-84
2024/04/23 13:34:17;;;;;;;3.08;2.58;;;;;;;;;;13700893;21;20032;-82
2024/04/23 13:39:18;;;;;;;4.13;3.28;;;;;;;;;;13702731;21;20008;-82
2024/04/23 13:44:19;;;;;;;3.42;2.13;;;;;;;;;;13700463;21;20382;-83
2024/04/23 13:49:20;;;;;;;3.20;1.98;;;;;;;;;;13750808;21;20000;-82
2024/04/23 13:54:21;;;;;;;3.67;2.38;;;;;;;;;;13712172;21;20404;-79
2024/04/23 13:59:23;;;;;;;3.20;2.47;;;;;;;;;;13761694;21;19995;-81
2024/04/23 14:04:25;;;;;;;3.65;2.97;;;;;;;;;;13759832;21;19992;-82
2024/04/23 14:09:26;;;;;;;3.70;2.88;;;;;;;;;;13749917;21;20008;-83
2024/04/23 14:14:27;;;;;;;3.13;2.35;;;;;;;;;;13698342;21;19987;-81
2024/04/23 14:19:33;;;;;;;3.28;2.20;;;;;;;;;;13742306;21;20000;-81
2024/04/23 14:24:35;;;;;;;2.90;2.65;;;;;;;;;;13744740;21;19992;-82
2024/04/23 14:29:36;;;;;;;3.03;2.38;;;;;;;;;;13740950;21;19991;-82
2024/04/23 14:34:37;;;;;;;2.78;2.50;;;;;;;;;;13694381;21;20000;-81
2024/04/23 14:39:38;;;;;;;5.57;2.70;;;;;;;;;;13743852;21;20012;-80
2024/04/23 14:44:39;;;;;;;4.50;4.00;;;;;;;;;;13701452;21;20053;-81
2024/04/23 14:49:40;;;;;;;3.40;2.60;;;;;;;;;;13747345;21;19992;-80
2024/04/23 14:54:41;;;;;;;3.90;3.50;;;;;;;;;;13747726;21;20003;-80
2024/04/23 14:59:42;;;;;;;2.63;2.22;;;;;;;;;;13749703;21;20032;-80
2024/04/23 15:04:43;;;;;;;3.63;2.28;;;;;;;;;;13768749;21;19996;-80
2024/04/23 15:09:44;;;;;;;3.75;3.30;;;;;;;;;;13718216;21;20040;-82
2024/04/23 15:14:48;;;;;;;3.33;2.28;;;;;;;;;;13744245;21;20003;-81
2024/04/23 15:19:52;;;;;;;3.05;2.60;;;;;;;;;;13755578;21;19996;-81
2024/04/23 15:24:54;;;;;;;4.25;3.67;;;;;;;;;;13761551;21;20369;-83
2024/04/23 15:29:55;;;;;;;2.40;1.90;;;;;;;;;;13744029;21;20301;-81
2024/04/23 15:34:56;;;;;;;3.55;2.40;;;;;;;;;;13744072;21;19997;-81
2024/04/23 15:40:00;;;;;;;3.90;2.95;;;;;;;;;;13697155;21;20002;-82
2024/04/23 15:45:01;;;;;;;3.42;2.65;;;;;;;;;;13743403;21;20002;-82
2024/04/23 15:50:06;;;;;;;5.75;2.80;;;;;;;;;;13705629;21;20036;-82
2024/04/23 15:55:08;;;;;;;4.82;4.05;;;;;;;;;;13770465;21;20019;-81
2024/04/23 16:00:10;;;;;;;2.97;1.40;;;;;;;;;;13714930;21;19992;-82
2024/04/23 16:05:11;;;;;;;2.38;1.63;;;;;;;;;;13745658;21;20010;-81
2024/04/23 16:10:13;;;;;;;2.75;1.77;;;;;;;;;;13746292;21;19995;-83
2024/04/23 16:15:14;;;;;;;2.60;1.83;;;;;;;;;;13750592;21;20315;-80
2024/04/23 16:20:15;;;;;;;3.35;2.50;;;;;;;;;;13756218;21;20423;-81
2024/04/23 16:25:19;;;;;;;4.38;3.92;;;;;;;;;;13747859;21;19996;-84
2024/04/23 16:30:22;;;;;;;3.00;2.45;;;;;;;;;;13771915;21;19995;-84
2024/04/23 16:35:48;;;;;;;5.40;4.47;;;;;;;;;;13775884;21;20006;-83
2024/04/23 16:40:59;;;;;;;4.43;3.30;;;;;;;;;;13724326;21;19996;-84
2024/04/23 16:46:11;;;;;;;6.95;5.05;;;;;;;;;;13770466;21;20002;-84
2024/04/23 16:51:20;;;;;;;4.38;3.38;;;;;;;;;;13757999;21;20066;-84
2024/04/23 16:56:26;;;;;;;4.00;2.80;;;;;;;;;;13768287;21;19995;-84
2024/04/23 17:01:28;;;;;;;5.07;4.03;;;;;;;;;;13690902;21;19991;-85
2024/04/23 17:06:29;;;;;;;4.07;3.45;;;;;;;;;;13659807;21;19987;-84
2024/04/23 17:11:32;;;;;;;6.15;5.55;;;;;;;;;;13749274;21;19999;-84
2024/04/23 17:16:33;;;;;;;6.25;5.65;;;;;;;;;;13711164;21;20335;-84
2024/04/23 17:21:51;;;;;;;5.30;4.70;;;;;;;;;;13708782;21;20000;-85
2024/04/23 17:26:59;;;;;;;2.80;2.50;;;;;;;;;;13741178;21;19984;-82
2024/04/23 17:32:09;;;;;;;5.75;4.22;;;;;;;;;;13775013;21;20039;-84
2024/04/23 17:37:12;;;;;;;5.17;3.80;;;;;;;;;;13767306;21;20003;-84
2024/04/23 17:42:17;;;;;;;4.10;3.15;;;;;;;;;;13715400;21;19988;-85
2024/04/23 17:47:27;;;;;;;4.63;4.20;;;;;;;;;;13702231;21;20023;-84
2024/04/23 17:52:28;;;;;;;5.97;5.32;;;;;;;;;;13764589;21;19992;-85
2024/04/23 17:57:31;;;;;;;2.85;2.45;;;;;;;;;;13761676;21;19992;-85
2024/04/23 18:03:08;;;;;;;6.82;4.88;;;;;;;;;;13763837;21;20002;-84
2024/04/23 18:08:28;;;;;;;5.10;4.20;;;;;;;;;;13755562;21;20000;-84
2024/04/23 18:13:39;;;;;;;6.28;4.60;;;;;;;;;;13762137;21;19992;-84
2024/04/23 18:18:40;;;;;;;4.95;4.38;;;;;;;;;;13763704;21;19995;-84
2024/04/23 18:23:43;;;;;;;5.10;4.40;;;;;;;;;;13767224;21;19992;-84
2024/04/23 18:29:07;;;;;;;5.53;3.97;;;;;;;;;;13715892;21;20003;-84
2024/04/23 18:34:20;;;;;;;3.70;3.08;;;;;;;;;;13725440;21;19988;-84
2024/04/23 18:39:22;;;;;;;5.85;3.70;;;;;;;;;;13732287;21;20042;-84
2024/04/23 18:44:23;;;;;;;4.10;3.70;;;;;;;;;;13767224;21;20051;-83
2024/04/23 18:49:24;;;;;;;5.78;3.88;;;;;;;;;;13769718;21;20003;-83
2024/04/23 18:54:25;;;;;;;4.03;3.63;;;;;;;;;;13755245;21;20531;-83
2024/04/23 18:59:27;;;;;;;7.57;4.40;;;;;;;;;;13710160;21;20007;-83
2024/04/23 19:04:28;;;;;;;4.60;3.83;;;;;;;;;;13777440;21;20007;-83
